Time;durP1;ratioP1;P1;durP2;ratioP2;P2;SDS_P1;SDS_P2;PMS_P1;PMS_P2;Temp;Humidity;BMP_temperature;BMP_pressure;BME280_temperature;BME280_humidity;BME280_pressure;Samples;Min_cycle;Max_cycle;Signal;HPM_P1;HPM_P2
2021/05/27 00:00:23;;;;;;;2.40;1.60;;;;;;;7.51;95.03;95648.97;5105412;28;20039;-74
2021/05/27 00:03:09;;;;;;;2.92;1.60;;;;;;;7.51;94.44;95654.22;5103143;28;20501;-73
2021/05/27 00:05:34;;;;;;;2.95;1.70;;;;;;;7.53;93.80;95651.34;5092129;28;20301;-73
2021/05/27 00:08:00;;;;;;;2.47;1.60;;;;;;;7.44;93.74;95649.19;5091659;28;20055;-73
2021/05/27 00:10:28;;;;;;;4.43;1.83;;;;;;;7.44;94.97;95645.75;5092655;28;20039;-73
2021/05/27 00:12:55;;;;;;;2.10;1.60;;;;;;;7.43;94.36;95642.38;5108169;28;20043;-73
2021/05/27 00:15:22;;;;;;;1.80;1.40;;;;;;;7.41;94.48;95639.22;5091105;28;20082;-73
2021/05/27 00:17:48;;;;;;;3.72;1.63;;;;;;;7.37;94.26;95643.34;5094022;28;20038;-73
2021/05/27 00:20:15;;;;;;;1.67;1.38;;;;;;;7.42;94.65;95635.53;5102803;28;20192;-73
2021/05/27 00:22:41;;;;;;;2.83;1.55;;;;;;;7.48;93.44;95635.59;5110322;28;20039;-73
2021/05/27 00:25:09;;;;;;;2.70;1.50;;;;;;;7.46;93.96;95630.63;5107323;28;20106;-73
2021/05/27 00:27:34;;;;;;;2.08;1.88;;;;;;;7.37;94.16;95643.34;5108850;28;20424;-73
2021/05/27 00:30:00;;;;;;;1.83;1.50;;;;;;;7.30;94.00;95642.75;5111369;28;20039;-74
2021/05/27 00:32:26;;;;;;;2.55;1.50;;;;;;;7.33;94.19;95647.50;5110759;28;20043;-73
2021/05/27 00:34:52;;;;;;;1.77;1.42;;;;;;;7.35;94.46;95650.66;5095344;28;20101;-73
2021/05/27 00:37:18;;;;;;;1.65;1.45;;;;;;;7.32;93.55;95650.38;5092677;28;20039;-73
2021/05/27 00:39:43;;;;;;;2.88;1.65;;;;;;;7.34;93.73;95649.09;5090664;28;20040;-73
2021/05/27 00:42:09;;;;;;;4.28;1.80;;;;;;;7.28;93.93;95650.03;5091647;28;20032;-73
2021/05/27 00:44:35;;;;;;;3.30;1.80;;;;;;;7.20;94.60;95653.91;5104850;28;20499;-73
2021/05/27 00:47:06;;;;;;;1.95;1.40;;;;;;;7.16;93.47;95658.03;5102411;28;20040;-73
2021/05/27 00:49:32;;;;;;;2.08;1.40;;;;;;;7.24;93.40;95654.19;5090600;28;20040;-75
2021/05/27 00:51:57;;;;;;;3.15;1.50;;;;;;;7.23;93.01;95644.78;5090839;28;20040;-75
2021/05/27 00:54:23;;;;;;;2.50;1.50;;;;;;;7.11;93.48;95656.16;5090565;28;20485;-74
2021/05/27 00:56:51;;;;;;;2.30;1.50;;;;;;;7.13;93.53;95662.97;5095506;28;20040;-75
2021/05/27 00:59:17;;;;;;;2.75;1.60;;;;;;;7.09;94.14;95673.91;5090605;28;20129;-74
2021/05/27 01:01:43;;;;;;;1.38;1.27;;;;;;;7.14;92.85;95665.34;5090676;28;20075;-75
2021/05/27 01:04:09;;;;;;;1.60;1.48;;;;;;;7.13;93.61;95662.97;5100042;28;20040;-75
2021/05/27 01:06:35;;;;;;;1.80;1.48;;;;;;;7.09;93.68;95663.44;5106621;28;20040;-75
2021/05/27 01:09:02;;;;;;;1.52;1.40;;;;;;;6.99;94.77;95657.28;5095143;28;20040;-75
2021/05/27 01:11:28;;;;;;;2.15;1.50;;;;;;;6.99;94.76;95658.06;5090549;28;20048;-74
2021/05/27 01:13:53;;;;;;;1.48;1.38;;;;;;;6.96;94.45;95645.47;5094916;28;20042;-74
2021/05/27 01:16:21;;;;;;;2.35;1.30;;;;;;;6.96;94.71;95642.88;5110445;28;20043;-74
2021/05/27 01:18:47;;;;;;;2.58;1.30;;;;;;;6.93;94.45;95645.97;5099782;28;20355;-74
2021/05/27 01:21:13;;;;;;;1.50;1.40;;;;;;;6.91;94.69;95648.03;5093960;28;20043;-74
2021/05/27 01:23:39;;;;;;;2.83;1.50;;;;;;;6.92;94.59;95647.00;5100068;28;20032;-74
2021/05/27 01:26:09;;;;;;;2.00;1.48;;;;;;;6.94;94.69;95642.34;5106613;28;20485;-74
2021/05/27 01:28:37;;;;;;;1.45;1.35;;;;;;;6.96;94.83;95631.63;5089829;28;20464;-75
2021/05/27 01:31:06;;;;;;;2.30;1.50;;;;;;;7.00;94.66;95643.97;5095390;28;20542;-74
2021/05/27 01:33:33;;;;;;;3.97;1.77;;;;;;;6.92;94.86;95647.81;5092912;28;20032;-74
2021/05/27 01:36:00;;;;;;;2.05;1.40;;;;;;;6.98;94.76;95651.25;5093022;28;20111;-74
2021/05/27 01:38:28;;;;;;;2.83;1.70;;;;;;;6.93;95.14;95659.06;5098443;28;20126;-74
2021/05/27 01:40:56;;;;;;;1.95;1.60;;;;;;;6.98;95.19;95659.09;5100805;28;20036;-74
2021/05/27 01:43:22;;;;;;;1.50;1.40;;;;;;;6.90;95.00;95659.53;5109570;28;20114;-74
2021/05/27 01:45:48;;;;;;;4.47;1.40;;;;;;;6.90;94.52;95654.31;5109734;28;20036;-74
2021/05/27 01:48:14;;;;;;;1.83;1.60;;;;;;;6.96;94.87;95658.56;5111807;28;20047;-73
2021/05/27 01:50:42;;;;;;;2.20;1.60;;;;;;;6.93;95.15;95659.06;5099118;28;20047;-73
2021/05/27 01:53:07;;;;;;;1.73;1.40;;;;;;;7.03;94.77;95668.88;5099763;28;20046;-73
2021/05/27 01:55:34;;;;;;;2.58;1.50;;;;;;;6.93;95.46;95672.13;5096259;28;20048;-73
2021/05/27 01:58:00;;;;;;;1.77;1.50;;;;;;;6.97;95.10;95670.63;5098943;28;20036;-74
2021/05/27 02:00:28;;;;;;;1.90;1.40;;;;;;;6.97;95.61;95660.16;5103450;28;20105;-73
2021/05/27 02:02:54;;;;;;;3.63;1.80;;;;;;;6.96;96.13;95669.03;5114115;28;20043;-73
2021/05/27 02:05:20;;;;;;;2.20;1.60;;;;;;;6.99;95.71;95668.53;5111069;28;20038;-75
2021/05/27 02:07:45;;;;;;;2.67;1.50;;;;;;;6.98;95.52;95666.94;5110349;28;20036;-73
2021/05/27 02:10:12;;;;;;;2.72;1.50;;;;;;;6.97;95.33;95670.63;5097774;28;20048;-73
2021/05/27 02:12:38;;;;;;;2.30;1.50;;;;;;;6.93;95.93;95679.97;5105349;28;20041;-73
2021/05/27 02:15:05;;;;;;;2.05;1.65;;;;;;;6.98;95.42;95677.41;5105981;28;20044;-74
2021/05/27 02:17:31;;;;;;;2.72;1.60;;;;;;;6.96;96.26;95673.47;5093848;28;20036;-74
2021/05/27 02:19:57;;;;;;;2.20;1.52;;;;;;;6.92;95.66;95668.75;5102884;28;20054;-74
2021/05/27 02:22:23;;;;;;;6.25;1.65;;;;;;;6.96;96.29;95663.03;5112506;28;20365;-74
2021/05/27 02:24:49;;;;;;;1.70;1.50;;;;;;;7.01;95.83;95671.72;5111761;28;20512;-74
2021/05/27 02:27:15;;;;;;;1.88;1.60;;;;;;;6.98;95.64;95660.94;5111981;28;20040;-73
2021/05/27 02:29:40;;;;;;;2.65;1.90;;;;;;;7.03;95.49;95669.66;5108692;28;20040;-73
2021/05/27 02:32:06;;;;;;;2.97;1.98;;;;;;;7.00;95.46;95670.13;5094770;28;20119;-73
2021/05/27 02:34:32;;;;;;;1.88;1.48;;;;;;;6.91;95.36;95661.91;5112598;28;20523;-73
2021/05/27 02:36:57;;;;;;;2.00;1.60;;;;;;;6.92;95.00;95660.06;5095368;28;20051;-74
2021/05/27 02:39:23;;;;;;;2.50;1.98;;;;;;;6.94;95.82;95655.41;5093110;28;20056;-74
2021/05/27 02:41:49;;;;;;;2.47;1.50;;;;;;;7.04;94.92;95671.25;5112235;28;20104;-73
2021/05/27 02:44:14;;;;;;;2.25;1.70;;;;;;;6.97;95.22;95665.38;5097325;28;20048;-74
2021/05/27 02:46:40;;;;;;;3.10;1.75;;;;;;;6.93;95.26;95669.53;5105093;28;20035;-74
2021/05/27 02:49:06;;;;;;;2.55;1.80;;;;;;;6.93;95.47;95664.28;5111146;28;20450;-74
2021/05/27 02:51:32;;;;;;;3.78;2.03;;;;;;;6.96;95.47;95674.25;5098542;28;20074;-73
2021/05/27 02:53:58;;;;;;;4.40;1.77;;;;;;;6.98;95.35;95677.41;5104165;28;20047;-74
2021/05/27 02:56:24;;;;;;;2.97;1.70;;;;;;;7.00;94.99;95683.22;5104959;28;20048;-74
2021/05/27 02:58:49;;;;;;;1.92;1.65;;;;;;;6.98;94.70;95677.41;5091375;28;20048;-74
2021/05/27 03:01:15;;;;;;;3.28;1.60;;;;;;;6.91;94.88;95682.03;5110602;28;20036;-74
2021/05/27 03:03:41;;;;;;;2.15;1.70;;;;;;;7.03;94.76;95679.34;5113345;28;20044;-74
2021/05/27 03:06:06;;;;;;;2.45;1.70;;;;;;;6.93;94.67;95675.53;5104102;28;21315;-74
2021/05/27 03:08:32;;;;;;;3.33;1.90;;;;;;;6.92;95.17;95678.41;5107429;28;20044;-74
2021/05/27 03:10:57;;;;;;;2.58;1.77;;;;;;;6.87;95.56;95680.97;5111028;28;20436;-74
2021/05/27 03:13:23;;;;;;;2.97;2.00;;;;;;;6.83;95.48;95680.63;5113297;28;20184;-74
2021/05/27 03:15:48;;;;;;;4.10;2.00;;;;;;;6.84;95.99;95681.41;5112857;28;20035;-74
2021/05/27 03:18:15;;;;;;;3.13;2.00;;;;;;;6.83;95.89;95685.09;5098331;28;20031;-75
2021/05/27 03:20:41;;;;;;;3.60;2.20;;;;;;;6.83;95.61;95687.69;5112847;28;20035;-74
2021/05/27 03:23:06;;;;;;;4.45;1.88;;;;;;;6.88;95.20;95677.28;5107266;28;20498;-74
2021/05/27 03:25:33;;;;;;;2.97;1.70;;;;;;;6.95;95.12;95677.91;5111192;28;20047;-73
2021/05/27 03:27:59;;;;;;;5.75;2.10;;;;;;;6.85;95.03;95688.25;5112379;28;20442;-74
2021/05/27 03:30:25;;;;;;;2.30;1.88;;;;;;;6.83;95.54;95679.84;5112071;28;20047;-74
2021/05/27 03:32:51;;;;;;;2.53;2.00;;;;;;;6.83;95.20;95687.69;5102624;28;20182;-74
2021/05/27 03:35:18;;;;;;;2.97;1.70;;;;;;;6.88;94.44;95687.75;5092411;28;20047;-74
2021/05/27 03:37:43;;;;;;;4.93;1.90;;;;;;;6.91;94.00;95687.25;5092114;28;20039;-74
2021/05/27 03:40:13;;;;;;;2.90;1.83;;;;;;;6.83;94.88;95685.09;5105828;28;20046;-74
2021/05/27 03:42:41;;;;;;;2.88;2.15;;;;;;;6.74;94.86;95672.41;5111814;28;20028;-74
2021/05/27 03:45:13;;;;;;;2.30;1.60;;;;;;;6.71;94.76;95666.84;5112162;28;20058;-74
2021/05/27 03:47:39;;;;;;;1.85;1.55;;;;;;;6.75;94.72;95674.00;5104341;28;20031;-74
2021/05/27 03:50:06;;;;;;;3.15;1.80;;;;;;;6.73;95.48;95676.03;5103578;28;20443;-74
2021/05/27 03:52:32;;;;;;;4.68;2.00;;;;;;;6.69;95.25;95679.38;5106651;28;20036;-74
2021/05/27 03:54:58;;;;;;;3.17;2.00;;;;;;;6.72;96.08;95681.53;5091713;28;20110;-74
2021/05/27 03:57:24;;;;;;;3.38;1.98;;;;;;;6.71;95.44;95683.34;5091544;28;20044;-74
2021/05/27 04:02:34;;;;;;;2.28;1.65;;;;;;;6.72;96.11;95686.75;5111304;28;20115;-74
2021/05/27 04:07:44;;;;;;;3.87;2.10;;;;;;;6.76;95.78;95691.25;5095745;28;20044;-74
2021/05/27 04:10:10;;;;;;;2.72;2.13;;;;;;;6.76;96.16;95688.63;5105843;28;20438;-74
2021/05/27 04:12:46;;;;;;;3.08;2.00;;;;;;;6.74;95.74;95677.63;5112026;28;20443;-75
2021/05/27 04:15:35;;;;;;;3.42;2.10;;;;;;;6.79;95.40;95683.97;5091400;28;20174;-74
2021/05/27 04:18:15;;;;;;;4.28;1.98;;;;;;;6.75;96.24;95694.13;5111193;28;20040;-74
2021/05/27 04:20:52;;;;;;;3.08;1.95;;;;;;;6.76;96.33;95688.63;5111883;28;20447;-74
2021/05/27 04:23:39;;;;;;;3.70;2.20;;;;;;;6.78;96.52;95688.44;5107577;28;20170;-74
2021/05/27 04:26:10;;;;;;;2.03;1.73;;;;;;;6.82;95.76;95684.28;5092419;28;20413;-74
2021/05/27 04:28:37;;;;;;;3.65;2.03;;;;;;;6.80;95.52;95690.81;5099679;28;20042;-75
2021/05/27 04:31:09;;;;;;;4.22;2.45;;;;;;;6.83;96.20;95690.31;5111388;28;20039;-74
2021/05/27 04:33:39;;;;;;;3.15;2.03;;;;;;;6.82;96.01;95688.72;5091297;28;20036;-74
2021/05/27 04:36:08;;;;;;;3.10;1.83;;;;;;;6.82;94.94;95689.50;5091463;28;20040;-74
2021/05/27 04:38:34;;;;;;;6.35;1.80;;;;;;;6.84;95.12;95691.88;5105552;28;20051;-74
2021/05/27 04:41:00;;;;;;;3.10;2.08;;;;;;;6.84;95.69;95697.91;5111320;28;20407;-74
2021/05/27 04:43:25;;;;;;;3.85;2.20;;;;;;;6.85;95.70;95703.94;5111486;28;20404;-74
2021/05/27 04:45:51;;;;;;;2.45;1.52;;;;;;;6.92;95.30;95705.38;5101039;28;20046;-74
2021/05/27 04:48:17;;;;;;;3.05;1.77;;;;;;;6.96;95.94;95705.66;5102641;28;20039;-74
2021/05/27 04:50:50;;;;;;;3.35;2.00;;;;;;;6.95;94.97;95698.84;5110678;28;20044;-74
2021/05/27 04:53:20;;;;;;;3.10;1.70;;;;;;;7.04;95.67;95702.63;5111467;28;20048;-74
2021/05/27 04:55:46;;;;;;;1.80;1.70;;;;;;;7.02;95.08;95701.28;5095194;28;20047;-74
2021/05/27 04:58:12;;;;;;;3.25;1.80;;;;;;;7.10;94.95;95699.03;5090646;28;20040;-74
2021/05/27 05:00:38;;;;;;;2.17;1.70;;;;;;;7.14;95.10;95695.94;5101417;28;20421;-74
2021/05/27 05:03:04;;;;;;;3.30;1.83;;;;;;;7.17;94.84;95706.72;5103863;28;20097;-74
2021/05/27 05:05:33;;;;;;;3.55;1.80;;;;;;;7.14;95.03;95702.00;5099261;28;20581;-73
2021/05/27 05:07:59;;;;;;;2.67;1.80;;;;;;;7.20;95.56;95695.00;5109666;28;20126;-74
2021/05/27 05:10:27;;;;;;;2.70;1.73;;;;;;;7.20;95.06;95695.00;5109197;28;20035;-73
2021/05/27 05:12:54;;;;;;;3.80;2.10;;;;;;;7.26;95.08;95699.25;5101718;28;20050;-73
2021/05/27 05:15:21;;;;;;;4.50;1.88;;;;;;;7.30;94.29;95702.97;5089962;28;20191;-74
2021/05/27 05:17:56;;;;;;;2.22;1.70;;;;;;;7.34;94.16;95706.69;5096806;28;20335;-73
2021/05/27 05:20:24;;;;;;;2.08;1.67;;;;;;;7.28;94.50;95699.78;5090351;28;20063;-74
2021/05/27 05:22:50;;;;;;;2.53;1.80;;;;;;;7.26;95.10;95709.72;5088848;28;20470;-74
2021/05/27 05:25:17;;;;;;;3.30;1.90;;;;;;;7.28;95.58;95702.41;5096155;28;20249;-73
2021/05/27 05:27:43;;;;;;;3.35;2.00;;;;;;;7.31;95.31;95712.38;5108236;28;20032;-74
2021/05/27 05:30:11;;;;;;;2.40;1.83;;;;;;;7.26;95.01;95714.94;5110471;28;20428;-74
2021/05/27 05:32:36;;;;;;;2.70;2.00;;;;;;;7.35;94.35;95713.47;5110514;28;20051;-74
2021/05/27 05:35:04;;;;;;;2.10;1.77;;;;;;;7.28;94.23;95718.91;5091913;28;20457;-74
2021/05/27 05:37:30;;;;;;;2.88;1.83;;;;;;;7.34;95.15;95718.97;5093624;28;20044;-74
2021/05/27 05:39:55;;;;;;;3.15;1.90;;;;;;;7.38;94.92;95718.22;5104562;28;20071;-74
2021/05/27 05:42:21;;;;;;;2.00;1.80;;;;;;;7.43;93.98;95726.16;5099777;28;20509;-73
2021/05/27 05:44:47;;;;;;;2.10;1.70;;;;;;;7.41;93.60;95728.25;5089737;28;20039;-73
2021/05/27 05:47:12;;;;;;;1.75;1.63;;;;;;;7.43;93.71;95726.16;5103744;28;20683;-74
2021/05/27 05:49:38;;;;;;;2.08;1.88;;;;;;;7.45;93.78;95729.31;5106435;28;20058;-73
2021/05/27 05:52:04;;;;;;;1.98;1.63;;;;;;;7.43;93.93;95731.41;5110356;28;20497;-74
2021/05/27 05:54:29;;;;;;;2.05;1.77;;;;;;;7.35;94.39;95741.50;5104870;28;20044;-74
2021/05/27 05:56:55;;;;;;;2.67;2.00;;;;;;;7.37;93.65;95732.38;5102148;28;20529;-74
2021/05/27 05:59:21;;;;;;;2.58;1.70;;;;;;;7.41;93.85;95733.47;5098870;28;20036;-74
2021/05/27 06:01:46;;;;;;;2.40;1.65;;;;;;;7.44;93.08;95725.13;5099654;28;20048;-73
2021/05/27 06:04:12;;;;;;;2.60;1.83;;;;;;;7.43;94.10;95730.63;5096865;28;20036;-73
2021/05/27 06:06:37;;;;;;;3.58;2.00;;;;;;;7.51;93.61;95732.00;5091207;28;20347;-73
2021/05/27 06:09:03;;;;;;;2.53;2.00;;;;;;;7.65;94.50;95722.75;5098393;28;20093;-73
2021/05/27 06:11:29;;;;;;;3.28;1.77;;;;;;;7.73;93.28;95730.16;5100754;28;20040;-73
2021/05/27 06:13:56;;;;;;;2.45;1.90;;;;;;;7.83;93.57;95723.44;5089085;28;20684;-73
2021/05/27 06:16:21;;;;;;;5.82;2.00;;;;;;;7.77;94.49;95720.78;5098759;28;20032;-73
2021/05/27 06:18:47;;;;;;;2.33;1.80;;;;;;;7.77;93.85;95715.56;5107827;28;20059;-74
2021/05/27 06:21:13;;;;;;;1.90;1.70;;;;;;;7.73;93.41;95719.69;5091572;28;20055;-73
2021/05/27 06:23:39;;;;;;;3.05;1.70;;;;;;;7.73;93.73;95724.94;5105954;28;20436;-73
2021/05/27 06:26:04;;;;;;;3.05;1.90;;;;;;;7.78;93.94;95730.22;5102284;28;20486;-73
2021/05/27 06:28:30;;;;;;;2.47;1.90;;;;;;;7.78;93.37;95727.59;5089572;28;20048;-73
2021/05/27 06:30:56;;;;;;;2.45;1.70;;;;;;;7.90;91.96;95724.03;5100858;28;20019;-74
2021/05/27 06:33:22;;;;;;;2.95;1.70;;;;;;;7.88;91.68;95731.38;5108876;28;20034;-74
2021/05/27 06:35:47;;;;;;;2.15;1.75;;;;;;;7.93;93.20;95731.41;5098452;28;20435;-73
2021/05/27 06:38:14;;;;;;;1.60;1.50;;;;;;;8.00;93.74;95728.59;5112457;28;20024;-73
2021/05/27 06:40:40;;;;;;;3.15;1.50;;;;;;;7.97;91.77;95735.94;5113704;27;20028;-73
2021/05/27 06:43:06;;;;;;;3.05;1.75;;;;;;;7.94;91.69;95738.25;5096736;28;20469;-74
2021/05/27 06:45:32;;;;;;;1.50;1.40;;;;;;;8.04;91.69;95746.19;5105634;28;20028;-73
2021/05/27 06:47:58;;;;;;;1.85;1.48;;;;;;;8.00;92.27;95742.50;5106709;28;20540;-73
2021/05/27 06:50:33;;;;;;;2.08;1.40;;;;;;;8.04;92.79;95746.19;5103771;28;20035;-74
2021/05/27 06:53:03;;;;;;;1.63;1.50;;;;;;;8.05;92.06;95745.16;5113964;28;20127;-73
2021/05/27 06:55:29;;;;;;;2.05;1.50;;;;;;;8.09;92.46;95743.66;5107712;28;20062;-73
2021/05/27 06:57:54;;;;;;;1.67;1.58;;;;;;;8.21;91.98;95750.56;5105597;28;20477;-73
2021/05/27 07:00:21;;;;;;;1.50;1.40;;;;;;;8.19;90.83;95750.00;5113071;28;20077;-73
2021/05/27 07:02:47;;;;;;;1.40;1.30;;;;;;;8.11;91.21;95746.78;5112559;28;20091;-73
2021/05/27 07:05:13;;;;;;;1.92;1.50;;;;;;;8.22;90.49;95746.91;5104293;28;20040;-73
2021/05/27 07:07:39;;;;;;;1.55;1.30;;;;;;;8.44;89.96;95734.53;5098269;28;20148;-73
2021/05/27 07:10:05;;;;;;;1.35;1.25;;;;;;;8.64;91.13;95738.38;5111591;28;20114;-74
2021/05/27 07:12:32;;;;;;;1.45;1.30;;;;;;;8.56;90.78;95736.22;5113281;28;20050;-74
2021/05/27 07:14:58;;;;;;;1.70;1.50;;;;;;;8.70;90.77;95737.38;5102292;28;20161;-73
2021/05/27 07:17:23;;;;;;;1.10;1.10;;;;;;;8.79;89.05;95741.13;5110610;28;20115;-74
2021/05/27 07:19:49;;;;;;;2.88;1.40;;;;;;;8.72;89.09;95740.53;5096658;28;20027;-74
2021/05/27 07:22:14;;;;;;;1.40;1.30;;;;;;;8.65;90.23;95740.75;5109930;28;20109;-74
2021/05/27 07:24:39;;;;;;;1.40;1.30;;;;;;;8.63;89.91;95734.16;5111164;28;20045;-74
2021/05/27 07:27:05;;;;;;;1.85;1.40;;;;;;;8.69;90.62;95740.25;5109968;28;20532;-74
2021/05/27 07:29:31;;;;;;;1.88;1.45;;;;;;;8.67;89.41;95740.50;5112579;28;20028;-75
2021/05/27 07:31:56;;;;;;;1.75;1.20;;;;;;;8.84;88.29;95728.00;5112742;28;20461;-74
2021/05/27 07:34:21;;;;;;;1.45;1.25;;;;;;;8.84;90.77;95735.88;5105961;28;20054;-74
2021/05/27 07:36:47;;;;;;;0.98;0.98;;;;;;;8.78;87.09;95734.28;5104201;28;20056;-73
2021/05/27 07:39:12;;;;;;;1.77;1.20;;;;;;;8.81;89.51;95739.03;5106168;28;20394;-74
2021/05/27 07:41:38;;;;;;;1.27;1.20;;;;;;;8.75;88.47;95740.03;5109179;28;20085;-73
2021/05/27 07:44:03;;;;;;;3.35;1.33;;;;;;;8.68;91.27;95749.94;5103460;28;20529;-75
2021/05/27 07:46:29;;;;;;;1.38;1.27;;;;;;;8.60;90.60;95742.53;5096237;28;20081;-73
2021/05/27 07:48:55;;;;;;;3.08;1.27;;;;;;;8.62;89.29;95750.94;5094296;28;20043;-73
2021/05/27 07:51:21;;;;;;;1.38;1.27;;;;;;;8.58;87.71;95755.13;5098041;28;20481;-73
2021/05/27 07:53:47;;;;;;;1.60;1.25;;;;;;;8.48;88.88;95756.59;5090893;28;20259;-73
2021/05/27 07:56:13;;;;;;;2.17;1.60;;;;;;;8.32;89.44;95747.00;5100130;28;20055;-74
2021/05/27 07:58:39;;;;;;;1.40;1.30;;;;;;;8.27;91.42;95749.56;5095851;28;20035;-74
2021/05/27 08:01:05;;;;;;;1.73;1.40;;;;;;;8.13;89.96;95755.22;5096399;28;20047;-74
2021/05/27 08:03:31;;;;;;;3.17;1.50;;;;;;;8.29;91.91;95752.75;5093466;28;20048;-73
2021/05/27 08:05:57;;;;;;;1.85;1.60;;;;;;;8.59;89.71;95752.25;5091693;28;20047;-74
2021/05/27 08:08:22;;;;;;;1.95;1.50;;;;;;;8.85;88.84;95760.31;5090648;28;20055;-74
2021/05/27 08:10:48;;;;;;;1.98;1.67;;;;;;;9.12;89.80;95759.44;5090311;28;20139;-74
2021/05/27 08:13:16;;;;;;;2.60;1.70;;;;;;;9.18;90.30;95755.81;5095574;28;20113;-73
2021/05/27 08:15:42;;;;;;;4.57;1.90;;;;;;;9.25;89.06;95758.19;5091090;28;20115;-73
2021/05/27 08:18:08;;;;;;;2.25;1.55;;;;;;;9.25;87.01;95758.19;5090609;28;20448;-73
2021/05/27 08:20:34;;;;;;;3.05;1.60;;;;;;;9.33;86.41;95766.38;5092656;28;20043;-72
2021/05/27 08:22:59;;;;;;;1.50;1.40;;;;;;;9.30;87.29;95771.34;5091640;28;20051;-72
2021/05/27 08:25:25;;;;;;;5.07;1.50;;;;;;;9.25;87.04;95769.50;5093081;28;20044;-73
2021/05/27 08:27:51;;;;;;;2.25;1.50;;;;;;;9.28;86.72;95770.81;5094005;28;20345;-73
2021/05/27 08:30:18;;;;;;;2.10;1.60;;;;;;;9.34;85.78;95777.69;5093572;28;20509;-73
2021/05/27 08:32:44;;;;;;;2.13;1.40;;;;;;;9.04;86.66;95773.81;5088566;28;20032;-73
2021/05/27 08:35:09;;;;;;;2.35;1.50;;;;;;;9.07;86.51;95783.81;5095999;28;20084;-73
2021/05/27 08:37:35;;;;;;;1.95;1.60;;;;;;;8.92;88.38;95781.88;5094084;28;20042;-73
2021/05/27 08:40:01;;;;;;;2.30;1.65;;;;;;;8.70;88.76;95784.59;5091713;28;20118;-73
2021/05/27 08:42:27;;;;;;;1.70;1.60;;;;;;;8.69;86.71;95783.00;5092780;28;20043;-73
2021/05/27 08:44:55;;;;;;;3.35;1.83;;;;;;;8.64;88.89;95780.34;5095948;28;20149;-73
2021/05/27 08:47:21;;;;;;;2.40;1.50;;;;;;;8.63;86.86;95781.38;5092239;28;20043;-73
2021/05/27 08:49:49;;;;;;;3.17;1.90;;;;;;;8.66;86.00;95789.56;5088704;28;20400;-74
2021/05/27 08:52:15;;;;;;;1.77;1.55;;;;;;;8.88;84.06;95782.63;5096687;28;20032;-73
2021/05/27 08:54:41;;;;;;;2.03;1.50;;;;;;;8.92;84.87;95781.06;5101564;28;20085;-73
2021/05/27 08:57:07;;;;;;;3.83;1.80;;;;;;;9.14;84.77;95784.38;5106230;28;20070;-73
2021/05/27 08:59:33;;;;;;;2.97;1.60;;;;;;;9.11;82.47;95794.63;5111098;28;20096;-72
2021/05/27 09:02:19;;;;;;;2.63;1.90;;;;;;;9.28;82.85;95783.94;5106552;28;20532;-73
2021/05/27 09:04:44;;;;;;;1.92;1.20;;;;;;;9.31;82.49;95788.69;5099528;28;20109;-73
2021/05/27 09:07:11;;;;;;;2.08;1.83;;;;;;;9.24;83.22;95794.16;5095529;28;20039;-74
2021/05/27 09:09:51;;;;;;;1.98;1.60;;;;;;;9.18;82.87;95798.59;5097432;28;20147;-73
2021/05/27 09:12:23;;;;;;;2.05;1.52;;;;;;;9.04;82.97;95800.06;5090684;28;20116;-73
2021/05/27 09:14:49;;;;;;;2.17;1.60;;;;;;;9.16;83.36;95808.53;5096433;28;20035;-73
2021/05/27 09:17:14;;;;;;;2.83;1.50;;;;;;;9.15;83.57;95806.97;5103236;28;20088;-73
2021/05/27 09:19:40;;;;;;;2.08;1.70;;;;;;;9.30;84.61;95810.75;5102616;28;20044;-72
2021/05/27 09:22:22;;;;;;;1.67;1.45;;;;;;;9.47;84.22;95808.75;5103861;28;20111;-72
2021/05/27 09:24:48;;;;;;;5.45;1.90;;;;;;;9.44;83.39;95809.25;5107334;28;20089;-73
2021/05/27 09:27:14;;;;;;;2.97;1.77;;;;;;;9.67;85.82;95812.53;5097387;28;20044;-73
2021/05/27 09:29:45;;;;;;;2.17;1.60;;;;;;;9.78;80.31;95808.88;5091707;28;20040;-74
2021/05/27 09:32:11;;;;;;;2.78;2.05;;;;;;;10.00;80.32;95805.31;5093763;28;20039;-74
2021/05/27 09:34:43;;;;;;;3.47;1.60;;;;;;;10.09;79.22;95797.72;5110592;28;20043;-73
2021/05/27 09:37:29;;;;;;;2.50;2.08;;;;;;;10.86;81.13;95800.47;5106301;28;20059;-72
2021/05/27 09:39:55;;;;;;;3.70;1.80;;;;;;;10.98;79.60;95802.84;5096295;28;20438;-74
2021/05/27 09:42:21;;;;;;;1.60;1.40;;;;;;;10.84;75.10;95795.47;5110768;28;20036;-74
2021/05/27 09:44:46;;;;;;;6.28;1.85;;;;;;;11.07;77.51;95801.25;5102986;28;20036;-74
2021/05/27 09:47:12;;;;;;;3.17;1.80;;;;;;;10.75;73.26;95799.69;5099351;28;20032;-75
2021/05/27 09:50:00;;;;;;;2.25;1.60;;;;;;;10.74;76.03;95806.00;5109881;28;20044;-75
2021/05/27 09:52:37;;;;;;;3.90;2.00;;;;;;;10.41;74.94;95805.44;5110709;28;20047;-74
2021/05/27 09:55:11;;;;;;;4.78;1.70;;;;;;;10.18;78.73;95806.66;5099170;28;20072;-75
2021/05/27 09:57:40;;;;;;;2.42;1.65;;;;;;;10.04;75.50;95801.09;5091982;28;20062;-75
2021/05/27 10:00:23;;;;;;;2.88;1.80;;;;;;;10.06;75.28;95809.53;5106682;28;20035;-75
2021/05/27 10:02:50;;;;;;;1.92;1.60;;;;;;;9.97;76.42;95808.44;5110548;28;20039;-75
2021/05/27 10:05:16;;;;;;;2.63;1.63;;;;;;;9.89;75.36;95810.50;5101325;28;20051;-75
2021/05/27 10:07:47;;;;;;;4.63;2.05;;;;;;;9.76;75.86;95811.00;5109621;28;20040;-75
2021/05/27 10:10:15;;;;;;;3.10;1.80;;;;;;;9.75;79.70;95814.66;5093263;28;20047;-75
2021/05/27 10:12:43;;;;;;;3.25;2.00;;;;;;;9.65;80.35;95810.13;5094709;28;20048;-74
2021/05/27 10:15:16;;;;;;;3.10;1.80;;;;;;;9.61;79.96;95811.72;5102716;28;20123;-75
2021/05/27 10:17:43;;;;;;;4.68;1.95;;;;;;;9.57;80.99;95817.72;5111113;28;20046;-74
2021/05/27 10:20:17;;;;;;;4.68;2.08;;;;;;;9.60;79.89;95811.97;5111415;28;20044;-75
2021/05/27 10:22:45;;;;;;;;;;;;;;;9.53;78.64;95820.06;5112211;28;20310;-74
2021/05/27 10:25:17;;;;;;;2.65;1.75;;;;;;;9.47;80.92;95814.00;5112804;28;19962;-75
2021/05/27 10:27:46;;;;;;;2.72;1.80;;;;;;;9.37;81.05;95829.72;5113747;28;20046;-75
2021/05/27 10:30:13;;;;;;;3.25;1.90;;;;;;;9.29;83.22;95823.06;5113021;28;20331;-74
2021/05/27 10:32:56;;;;;;;2.80;1.90;;;;;;;9.25;81.38;95826.47;5106742;27;20036;-74
2021/05/27 10:35:22;;;;;;;2.47;1.87;;;;;;;9.27;83.69;95829.66;5103424;28;20036;-75
2021/05/27 10:37:50;;;;;;;3.40;1.85;;;;;;;9.38;83.04;95826.03;5113080;28;20380;-75
2021/05/27 10:40:21;;;;;;;2.90;1.85;;;;;;;9.51;82.65;95830.84;5106747;28;20536;-75
2021/05/27 10:42:56;;;;;;;2.60;1.80;;;;;;;9.48;80.21;95831.34;5101255;28;20040;-75
2021/05/27 10:45:25;;;;;;;;;;;;;;;9.79;83.19;95821.00;5097269;28;20577;-75
2021/05/27 10:48:12;;;;;;;3.92;1.70;;;;;;;9.89;77.70;95820.25;5110182;28;19920;-74
2021/05/27 10:53:37;;;;;;;2.58;1.73;;;;;;;10.40;77.63;95809.09;5101334;28;20082;-77
2021/05/27 10:56:08;;;;;;;3.92;1.60;;;;;;;10.75;77.43;95820.75;5106764;28;20043;-77
2021/05/27 10:58:45;;;;;;;2.33;1.67;;;;;;;10.98;76.77;95813.38;5105566;28;20043;-76
2021/05/27 11:01:12;;;;;;;2.08;1.42;;;;;;;11.77;72.69;95808.50;5104526;28;20516;-75
2021/05/27 11:03:58;;;;;;;3.05;1.60;;;;;;;11.86;69.22;95806.88;5099713;28;20505;-68
2021/05/27 11:06:39;;;;;;;2.30;1.50;;;;;;;11.78;70.87;95804.81;5095765;28;20056;-68
2021/05/27 11:09:13;;;;;;;1.73;1.40;;;;;;;11.63;67.04;95796.94;5091920;28;20525;-68
2021/05/27 11:11:45;;;;;;;1.98;1.35;;;;;;;11.84;65.53;95802.91;5107623;28;20471;-69
2021/05/27 11:14:34;;;;;;;1.70;1.40;;;;;;;11.98;69.44;95805.78;5102877;28;20047;-69
2021/05/27 11:17:03;;;;;;;1.88;1.40;;;;;;;11.70;68.64;95802.72;5104427;28;20040;-69
2021/05/27 11:20:08;;;;;;;1.50;1.23;;;;;;;11.54;66.62;95801.97;5099980;28;20044;-69
2021/05/27 11:22:35;;;;;;;1.40;1.30;;;;;;;11.75;70.74;95805.31;5092952;28;20109;-68
2021/05/27 11:25:10;;;;;;;2.55;1.27;;;;;;;11.64;68.08;95809.84;5104090;28;20052;-68
2021/05/27 11:27:41;;;;;;;2.20;1.30;;;;;;;11.45;69.29;95812.28;5112371;28;20078;-74
2021/05/27 11:30:25;;;;;;;2.90;1.50;;;;;;;11.07;69.91;95814.44;5092501;28;20520;-68
2021/05/27 11:33:04;;;;;;;1.60;1.30;;;;;;;10.75;69.47;95810.22;5097374;28;20554;-69
2021/05/27 11:35:53;;;;;;;1.20;1.10;;;;;;;10.47;70.12;95799.13;5106520;28;20039;-69
2021/05/27 11:38:25;;;;;;;1.73;1.40;;;;;;;10.45;70.14;95805.72;5103142;28;20588;-69
2021/05/27 11:40:57;;;;;;;1.98;1.13;;;;;;;10.44;71.60;95799.66;5110889;28;20044;-69
2021/05/27 11:43:33;;;;;;;2.92;1.40;;;;;;;10.47;68.96;95798.34;5106566;28;20051;-69
2021/05/27 11:46:04;;;;;;;1.50;1.27;;;;;;;10.61;70.77;95804.66;5110928;28;20397;-69
2021/05/27 11:48:33;;;;;;;1.52;1.20;;;;;;;10.81;68.92;95798.63;5104058;28;20035;-69
2021/05/27 11:51:16;;;;;;;1.85;1.50;;;;;;;10.75;72.93;95799.69;5106946;28;20520;-69
2021/05/27 11:53:49;;;;;;;1.40;1.30;;;;;;;10.69;69.64;95795.47;5103509;28;20077;-69